sensor_id;sensor_type;location;lat;lon;timestamp;temperature;humidity
71563;DHT22;59391;52.504;13.438;2022-12-29T00:00:04;9.80;71.80
71563;DHT22;59391;52.504;13.438;2022-12-29T00:02:31;9.80;73.00
71563;DHT22;59391;52.504;13.438;2022-12-29T00:04:56;9.80;72.90
71563;DHT22;59391;52.504;13.438;2022-12-29T00:07:22;9.80;72.90
71563;DHT22;59391;52.504;13.438;2022-12-29T00:09:48;9.80;72.80
71563;DHT22;59391;52.504;13.438;2022-12-29T00:12:14;9.80;72.50
71563;DHT22;59391;52.504;13.438;2022-12-29T00:14:39;9.90;72.00
71563;DHT22;59391;52.504;13.438;2022-12-29T00:17:23;9.90;72.00
71563;DHT22;59391;52.504;13.438;2022-12-29T00:19:49;9.90;72.10
71563;DHT22;59391;52.504;13.438;2022-12-29T00:22:59;9.90;71.90
71563;DHT22;59391;52.504;13.438;2022-12-29T00:25:44;10.00;72.00
71563;DHT22;59391;52.504;13.438;2022-12-29T00:28:28;10.00;71.80
71563;DHT22;59391;52.504;13.438;2022-12-29T00:31:12;10.00;70.60
71563;DHT22;59391;52.504;13.438;2022-12-29T00:33:56;10.10;70.60
71563;DHT22;59391;52.504;13.438;2022-12-29T00:36:41;10.10;70.40
71563;DHT22;59391;52.504;13.438;2022-12-29T00:39:12;10.10;69.30
71563;DHT22;59391;52.504;13.438;2022-12-29T00:42:08;10.10;69.80
71563;DHT22;59391;52.504;13.438;2022-12-29T00:44:53;10.10;69.90
71563;DHT22;59391;52.504;13.438;2022-12-29T00:47:19;10.20;69.20
71563;DHT22;59391;52.504;13.438;2022-12-29T00:49:44;10.20;68.90
71563;DHT22;59391;52.504;13.438;2022-12-29T00:52:13;10.20;69.40
71563;DHT22;59391;52.504;13.438;2022-12-29T00:54:40;10.20;69.40
71563;DHT22;59391;52.504;13.438;2022-12-29T00:57:08;10.20;68.90
71563;DHT22;59391;52.504;13.438;2022-12-29T00:59:35;10.20;69.10
71563;DHT22;59391;52.504;13.438;2022-12-29T01:02:01;10.10;68.70
71563;DHT22;59391;52.504;13.438;2022-12-29T01:04:27;10.10;68.80
71563;DHT22;59391;52.504;13.438;2022-12-29T01:06:53;10.10;69.10
71563;DHT22;59391;52.504;13.438;2022-12-29T01:09:19;10.10;69.40
71563;DHT22;59391;52.504;13.438;2022-12-29T01:12:06;10.10;69.40
71563;DHT22;59391;52.504;13.438;2022-12-29T01:14:33;10.10;70.30
71563;DHT22;59391;52.504;13.438;2022-12-29T01:16:59;10.10;69.60
71563;DHT22;59391;52.504;13.438;2022-12-29T01:19:25;10.10;69.90
71563;DHT22;59391;52.504;13.438;2022-12-29T01:21:51;10.00;69.20
71563;DHT22;59391;52.504;13.438;2022-12-29T01:24:18;10.00;69.80
71563;DHT22;59391;52.504;13.438;2022-12-29T01:26:45;10.00;69.40
71563;DHT22;59391;52.504;13.438;2022-12-29T01:29:11;10.00;69.90
71563;DHT22;59391;52.504;13.438;2022-12-29T01:31:37;10.00;69.50
71563;DHT22;59391;52.504;13.438;2022-12-29T01:34:03;10.00;69.60
71563;DHT22;59391;52.504;13.438;2022-12-29T01:36:29;10.00;69.60
71563;DHT22;59391;52.504;13.438;2022-12-29T01:38:55;10.10;69.80
71563;DHT22;59391;52.504;13.438;2022-12-29T01:41:21;10.10;69.60
71563;DHT22;59391;52.504;13.438;2022-12-29T01:43:56;10.10;69.80
71563;DHT22;59391;52.504;13.438;2022-12-29T01:46:40;10.10;69.80
71563;DHT22;59391;52.504;13.438;2022-12-29T01:49:14;10.10;70.00
71563;DHT22;59391;52.504;13.438;2022-12-29T01:51:48;10.10;70.10
71563;DHT22;59391;52.504;13.438;2022-12-29T01:54:24;10.10;71.10
71563;DHT22;59391;52.504;13.438;2022-12-29T01:56:55;10.00;70.10
71563;DHT22;59391;52.504;13.438;2022-12-29T01:59:28;10.00;70.90
71563;DHT22;59391;52.504;13.438;2022-12-29T02:02:00;10.00;70.90
71563;DHT22;59391;52.504;13.438;2022-12-29T02:04:27;10.00;70.60
71563;DHT22;59391;52.504;13.438;2022-12-29T02:07:01;9.90;71.20
71563;DHT22;59391;52.504;13.438;2022-12-29T02:09:30;9.90;71.50
71563;DHT22;59391;52.504;13.438;2022-12-29T02:11:56;9.90;71.30
71563;DHT22;59391;52.504;13.438;2022-12-29T02:14:23;9.80;72.50
71563;DHT22;59391;52.504;13.438;2022-12-29T02:16:58;9.80;72.40
71563;DHT22;59391;52.504;13.438;2022-12-29T02:22:57;9.80;72.40
71563;DHT22;59391;52.504;13.438;2022-12-29T02:31:24;9.80;71.90
71563;DHT22;59391;52.504;13.438;2022-12-29T02:34:22;9.70;72.20
71563;DHT22;59391;52.504;13.438;2022-12-29T02:39:54;9.80;71.40
71563;DHT22;59391;52.504;13.438;2022-12-29T02:49:09;9.90;69.90
71563;DHT22;59391;52.504;13.438;2022-12-29T02:51:57;10.00;69.60
71563;DHT22;59391;52.504;13.438;2022-12-29T02:54:27;10.00;69.80
71563;DHT22;59391;52.504;13.438;2022-12-29T02:57:27;10.10;68.00
71563;DHT22;59391;52.504;13.438;2022-12-29T03:00:15;10.10;69.00
71563;DHT22;59391;52.504;13.438;2022-12-29T03:06:32;10.30;67.40
71563;DHT22;59391;52.504;13.438;2022-12-29T03:15:34;10.50;65.50
71563;DHT22;59391;52.504;13.438;2022-12-29T03:18:41;10.50;65.00
71563;DHT22;59391;52.504;13.438;2022-12-29T03:21:19;10.60;65.50
71563;DHT22;59391;52.504;13.438;2022-12-29T03:24:15;10.70;64.30
71563;DHT22;59391;52.504;13.438;2022-12-29T03:26:44;10.80;64.70
71563;DHT22;59391;52.504;13.438;2022-12-29T03:29:13;10.80;64.30
71563;DHT22;59391;52.504;13.438;2022-12-29T03:31:41;10.90;64.00
71563;DHT22;59391;52.504;13.438;2022-12-29T03:34:08;11.00;64.10
71563;DHT22;59391;52.504;13.438;2022-12-29T03:36:50;11.00;64.20
71563;DHT22;59391;52.504;13.438;2022-12-29T03:39:22;11.10;62.50
71563;DHT22;59391;52.504;13.438;2022-12-29T03:41:52;11.10;63.10
71563;DHT22;59391;52.504;13.438;2022-12-29T03:44:32;11.20;62.90
71563;DHT22;59391;52.504;13.438;2022-12-29T03:47:00;11.20;63.30
71563;DHT22;59391;52.504;13.438;2022-12-29T03:49:26;11.20;62.30
71563;DHT22;59391;52.504;13.438;2022-12-29T03:51:51;11.30;62.40
71563;DHT22;59391;52.504;13.438;2022-12-29T03:54:17;11.30;62.40
71563;DHT22;59391;52.504;13.438;2022-12-29T03:56:42;11.30;62.60
71563;DHT22;59391;52.504;13.438;2022-12-29T03:59:08;11.30;62.10
71563;DHT22;59391;52.504;13.438;2022-12-29T04:01:34;11.30;62.20
71563;DHT22;59391;52.504;13.438;2022-12-29T04:03:59;11.40;62.00
71563;DHT22;59391;52.504;13.438;2022-12-29T04:06:25;11.40;61.80
71563;DHT22;59391;52.504;13.438;2022-12-29T04:08:51;11.40;62.40
71563;DHT22;59391;52.504;13.438;2022-12-29T04:11:16;11.50;62.10
71563;DHT22;59391;52.504;13.438;2022-12-29T04:13:42;11.50;61.90
71563;DHT22;59391;52.504;13.438;2022-12-29T04:16:08;11.50;61.80
71563;DHT22;59391;52.504;13.438;2022-12-29T04:18:33;11.60;62.20
71563;DHT22;59391;52.504;13.438;2022-12-29T04:20:59;11.60;61.30
71563;DHT22;59391;52.504;13.438;2022-12-29T04:23:26;11.60;61.30
71563;DHT22;59391;52.504;13.438;2022-12-29T04:25:52;11.60;61.20
71563;DHT22;59391;52.504;13.438;2022-12-29T04:28:18;11.60;61.50
71563;DHT22;59391;52.504;13.438;2022-12-29T04:30:44;11.70;60.90
71563;DHT22;59391;52.504;13.438;2022-12-29T04:33:11;11.70;60.70
71563;DHT22;59391;52.504;13.438;2022-12-29T04:35:37;11.70;60.70
71563;DHT22;59391;52.504;13.438;2022-12-29T04:38:02;11.70;61.00
71563;DHT22;59391;52.504;13.438;2022-12-29T04:40:28;11.70;60.80
71563;DHT22;59391;52.504;13.438;2022-12-29T04:42:54;11.70;61.10
71563;DHT22;59391;52.504;13.438;2022-12-29T04:45:20;11.80;60.90
71563;DHT22;59391;52.504;13.438;2022-12-29T04:47:46;11.80;60.40
71563;DHT22;59391;52.504;13.438;2022-12-29T04:50:11;11.80;60.60
71563;DHT22;59391;52.504;13.438;2022-12-29T04:52:37;11.80;60.90
71563;DHT22;59391;52.504;13.438;2022-12-29T04:55:03;11.80;60.10
71563;DHT22;59391;52.504;13.438;2022-12-29T04:57:29;11.80;60.60
71563;DHT22;59391;52.504;13.438;2022-12-29T04:59:55;11.80;60.40
71563;DHT22;59391;52.504;13.438;2022-12-29T05:02:21;11.80;60.30
71563;DHT22;59391;52.504;13.438;2022-12-29T05:04:47;11.80;60.20
71563;DHT22;59391;52.504;13.438;2022-12-29T05:07:12;11.80;60.30
71563;DHT22;59391;52.504;13.438;2022-12-29T05:09:38;11.80;60.60
71563;DHT22;59391;52.504;13.438;2022-12-29T05:12:04;11.90;60.30
71563;DHT22;59391;52.504;13.438;2022-12-29T05:14:30;11.80;60.30
71563;DHT22;59391;52.504;13.438;2022-12-29T05:16:56;11.80;60.70
71563;DHT22;59391;52.504;13.438;2022-12-29T05:19:21;11.90;60.70
71563;DHT22;59391;52.504;13.438;2022-12-29T05:21:47;11.90;60.60
71563;DHT22;59391;52.504;13.438;2022-12-29T05:24:13;11.90;60.40
71563;DHT22;59391;52.504;13.438;2022-12-29T05:26:38;12.00;60.60
71563;DHT22;59391;52.504;13.438;2022-12-29T05:29:04;12.00;60.20
71563;DHT22;59391;52.504;13.438;2022-12-29T05:31:30;12.00;60.70
71563;DHT22;59391;52.504;13.438;2022-12-29T05:33:56;12.00;60.40
71563;DHT22;59391;52.504;13.438;2022-12-29T05:36:22;12.00;60.50
71563;DHT22;59391;52.504;13.438;2022-12-29T05:38:47;12.00;60.50
71563;DHT22;59391;52.504;13.438;2022-12-29T05:41:13;12.10;60.50
71563;DHT22;59391;52.504;13.438;2022-12-29T05:43:38;12.10;60.40
71563;DHT22;59391;52.504;13.438;2022-12-29T05:46:04;12.10;60.70
71563;DHT22;59391;52.504;13.438;2022-12-29T05:48:30;12.10;60.30
71563;DHT22;59391;52.504;13.438;2022-12-29T05:50:56;12.20;60.40
71563;DHT22;59391;52.504;13.438;2022-12-29T05:53:21;12.10;60.40
71563;DHT22;59391;52.504;13.438;2022-12-29T05:55:48;12.20;60.60
71563;DHT22;59391;52.504;13.438;2022-12-29T05:58:15;12.20;60.60
71563;DHT22;59391;52.504;13.438;2022-12-29T06:00:41;12.20;60.50
71563;DHT22;59391;52.504;13.438;2022-12-29T06:03:07;12.30;60.50
71563;DHT22;59391;52.504;13.438;2022-12-29T06:05:33;12.30;60.50
71563;DHT22;59391;52.504;13.438;2022-12-29T06:07:59;12.40;60.40
71563;DHT22;59391;52.504;13.438;2022-12-29T06:10:25;12.40;60.30
71563;DHT22;59391;52.504;13.438;2022-12-29T06:12:50;12.40;60.30
71563;DHT22;59391;52.504;13.438;2022-12-29T06:15:16;12.40;60.20
71563;DHT22;59391;52.504;13.438;2022-12-29T06:17:42;12.50;60.00
71563;DHT22;59391;52.504;13.438;2022-12-29T06:20:10;12.50;60.10
71563;DHT22;59391;52.504;13.438;2022-12-29T06:22:36;12.50;60.30
71563;DHT22;59391;52.504;13.438;2022-12-29T06:25:02;12.50;60.20
71563;DHT22;59391;52.504;13.438;2022-12-29T06:27:28;12.60;60.30
71563;DHT22;59391;52.504;13.438;2022-12-29T06:29:54;12.60;60.20
71563;DHT22;59391;52.504;13.438;2022-12-29T06:32:20;12.60;59.90
71563;DHT22;59391;52.504;13.438;2022-12-29T06:34:46;12.60;60.00
71563;DHT22;59391;52.504;13.438;2022-12-29T06:37:12;12.70;60.00
71563;DHT22;59391;52.504;13.438;2022-12-29T06:39:38;12.70;59.50
71563;DHT22;59391;52.504;13.438;2022-12-29T06:42:03;12.70;59.60
71563;DHT22;59391;52.504;13.438;2022-12-29T06:44:29;12.80;59.50
71563;DHT22;59391;52.504;13.438;2022-12-29T06:46:55;12.80;59.70
71563;DHT22;59391;52.504;13.438;2022-12-29T06:49:23;12.80;59.80
71563;DHT22;59391;52.504;13.438;2022-12-29T06:51:49;12.80;59.50
71563;DHT22;59391;52.504;13.438;2022-12-29T06:54:15;12.80;59.60
71563;DHT22;59391;52.504;13.438;2022-12-29T06:56:40;12.80;59.60
71563;DHT22;59391;52.504;13.438;2022-12-29T06:59:06;12.80;59.40
71563;DHT22;59391;52.504;13.438;2022-12-29T07:01:32;12.80;59.50
71563;DHT22;59391;52.504;13.438;2022-12-29T07:03:57;12.80;59.50
71563;DHT22;59391;52.504;13.438;2022-12-29T07:06:23;12.80;59.50
71563;DHT22;59391;52.504;13.438;2022-12-29T07:08:49;12.80;59.20
71563;DHT22;59391;52.504;13.438;2022-12-29T07:11:15;12.80;59.40
71563;DHT22;59391;52.504;13.438;2022-12-29T07:13:41;12.80;59.50
71563;DHT22;59391;52.504;13.438;2022-12-29T07:16:08;12.80;59.50
71563;DHT22;59391;52.504;13.438;2022-12-29T07:18:35;12.70;59.50
71563;DHT22;59391;52.504;13.438;2022-12-29T07:21:01;12.80;59.40
71563;DHT22;59391;52.504;13.438;2022-12-29T07:23:27;12.70;59.60
71563;DHT22;59391;52.504;13.438;2022-12-29T07:26:07;12.70;59.90
71563;DHT22;59391;52.504;13.438;2022-12-29T07:28:35;12.60;59.80
71563;DHT22;59391;52.504;13.438;2022-12-29T07:31:01;12.60;60.00
71563;DHT22;59391;52.504;13.438;2022-12-29T07:33:30;12.60;60.30
71563;DHT22;59391;52.504;13.438;2022-12-29T07:35:59;12.60;60.20
71563;DHT22;59391;52.504;13.438;2022-12-29T07:38:28;12.60;60.50
71563;DHT22;59391;52.504;13.438;2022-12-29T07:40:57;12.60;60.40
71563;DHT22;59391;52.504;13.438;2022-12-29T07:43:23;12.60;60.50
71563;DHT22;59391;52.504;13.438;2022-12-29T07:45:49;12.60;60.60
71563;DHT22;59391;52.504;13.438;2022-12-29T07:48:17;12.60;60.70
71563;DHT22;59391;52.504;13.438;2022-12-29T07:50:43;12.60;60.80
71563;DHT22;59391;52.504;13.438;2022-12-29T07:53:09;12.60;60.60
71563;DHT22;59391;52.504;13.438;2022-12-29T07:55:37;12.70;60.70
71563;DHT22;59391;52.504;13.438;2022-12-29T07:58:02;12.80;60.70
71563;DHT22;59391;52.504;13.438;2022-12-29T08:00:29;12.80;60.50
71563;DHT22;59391;52.504;13.438;2022-12-29T08:02:55;12.80;60.30
71563;DHT22;59391;52.504;13.438;2022-12-29T08:05:20;12.80;60.40
71563;DHT22;59391;52.504;13.438;2022-12-29T08:07:53;12.80;60.40
71563;DHT22;59391;52.504;13.438;2022-12-29T08:10:19;12.80;60.40
71563;DHT22;59391;52.504;13.438;2022-12-29T08:12:44;12.80;60.40
71563;DHT22;59391;52.504;13.438;2022-12-29T08:15:11;12.90;60.00
71563;DHT22;59391;52.504;13.438;2022-12-29T08:17:37;12.90;60.00
71563;DHT22;59391;52.504;13.438;2022-12-29T08:20:04;12.80;60.00
71563;DHT22;59391;52.504;13.438;2022-12-29T08:22:30;12.90;60.10
71563;DHT22;59391;52.504;13.438;2022-12-29T08:24:58;12.90;60.80
71563;DHT22;59391;52.504;13.438;2022-12-29T08:27:25;12.90;60.40
71563;DHT22;59391;52.504;13.438;2022-12-29T08:29:51;12.90;60.30
71563;DHT22;59391;52.504;13.438;2022-12-29T08:32:17;12.80;60.90
71563;DHT22;59391;52.504;13.438;2022-12-29T08:34:43;12.90;61.10
71563;DHT22;59391;52.504;13.438;2022-12-29T08:37:12;12.90;60.80
71563;DHT22;59391;52.504;13.438;2022-12-29T08:39:41;12.90;60.90
71563;DHT22;59391;52.504;13.438;2022-12-29T08:42:06;12.90;60.90
71563;DHT22;59391;52.504;13.438;2022-12-29T08:44:34;13.00;60.60
71563;DHT22;59391;52.504;13.438;2022-12-29T08:47:00;13.00;60.60
71563;DHT22;59391;52.504;13.438;2022-12-29T08:49:26;13.00;60.50
71563;DHT22;59391;52.504;13.438;2022-12-29T08:51:51;13.00;60.40
71563;DHT22;59391;52.504;13.438;2022-12-29T08:54:17;13.00;60.90
71563;DHT22;59391;52.504;13.438;2022-12-29T08:56:43;13.00;60.90
71563;DHT22;59391;52.504;13.438;2022-12-29T08:59:08;13.00;60.40
71563;DHT22;59391;52.504;13.438;2022-12-29T09:01:34;13.00;61.20
71563;DHT22;59391;52.504;13.438;2022-12-29T09:04:09;13.00;61.00
71563;DHT22;59391;52.504;13.438;2022-12-29T09:06:35;13.00;60.70
71563;DHT22;59391;52.504;13.438;2022-12-29T09:09:03;13.10;60.70
71563;DHT22;59391;52.504;13.438;2022-12-29T09:11:49;13.10;61.00
71563;DHT22;59391;52.504;13.438;2022-12-29T09:14:18;13.10;60.70
71563;DHT22;59391;52.504;13.438;2022-12-29T09:16:54;13.10;60.50
71563;DHT22;59391;52.504;13.438;2022-12-29T09:19:38;13.20;60.80
71563;DHT22;59391;52.504;13.438;2022-12-29T09:22:04;13.20;61.00
71563;DHT22;59391;52.504;13.438;2022-12-29T09:24:30;13.30;61.20
71563;DHT22;59391;52.504;13.438;2022-12-29T09:26:56;13.30;60.60
71563;DHT22;59391;52.504;13.438;2022-12-29T09:29:21;13.30;60.00
71563;DHT22;59391;52.504;13.438;2022-12-29T09:31:47;13.40;60.00
71563;DHT22;59391;52.504;13.438;2022-12-29T09:34:13;13.40;59.80
71563;DHT22;59391;52.504;13.438;2022-12-29T09:36:38;13.40;60.00
71563;DHT22;59391;52.504;13.438;2022-12-29T09:39:04;13.50;60.00
71563;DHT22;59391;52.504;13.438;2022-12-29T09:41:37;13.50;59.40
71563;DHT22;59391;52.504;13.438;2022-12-29T09:44:23;13.50;59.70
71563;DHT22;59391;52.504;13.438;2022-12-29T09:46:57;13.50;59.30
71563;DHT22;59391;52.504;13.438;2022-12-29T09:49:40;13.60;59.70
71563;DHT22;59391;52.504;13.438;2022-12-29T09:55:00;13.60;59.50
71563;DHT22;59391;52.504;13.438;2022-12-29T09:57:42;13.60;59.30
71563;DHT22;59391;52.504;13.438;2022-12-29T10:00:39;13.60;59.20
71563;DHT22;59391;52.504;13.438;2022-12-29T10:03:19;13.70;59.00
71563;DHT22;59391;52.504;13.438;2022-12-29T10:05:52;13.70;59.00
71563;DHT22;59391;52.504;13.438;2022-12-29T10:08:42;13.70;59.20
71563;DHT22;59391;52.504;13.438;2022-12-29T10:14:12;13.70;58.80
71563;DHT22;59391;52.504;13.438;2022-12-29T10:20:10;13.80;58.50
71563;DHT22;59391;52.504;13.438;2022-12-29T10:25:56;13.90;58.70
71563;DHT22;59391;52.504;13.438;2022-12-29T10:28:48;13.90;58.60
71563;DHT22;59391;52.504;13.438;2022-12-29T10:31:23;13.90;58.70
71563;DHT22;59391;52.504;13.438;2022-12-29T10:33:56;13.90;58.50
71563;DHT22;59391;52.504;13.438;2022-12-29T10:39:32;14.00;58.80
71563;DHT22;59391;52.504;13.438;2022-12-29T10:44:36;14.10;58.20
71563;DHT22;59391;52.504;13.438;2022-12-29T10:47:05;14.20;58.00
71563;DHT22;59391;52.504;13.438;2022-12-29T10:49:40;14.30;57.50
71563;DHT22;59391;52.504;13.438;2022-12-29T10:52:08;14.30;57.90
71563;DHT22;59391;52.504;13.438;2022-12-29T10:54:49;14.40;57.00
71563;DHT22;59391;52.504;13.438;2022-12-29T10:59:51;14.40;56.60
71563;DHT22;59391;52.504;13.438;2022-12-29T11:08:09;14.40;56.70
71563;DHT22;59391;52.504;13.438;2022-12-29T11:10:39;14.40;56.70
71563;DHT22;59391;52.504;13.438;2022-12-29T11:15:48;14.50;56.80
71563;DHT22;59391;52.504;13.438;2022-12-29T11:18:25;14.50;56.40
71563;DHT22;59391;52.504;13.438;2022-12-29T11:21:01;14.50;56.60
71563;DHT22;59391;52.504;13.438;2022-12-29T11:23:40;14.50;56.60
71563;DHT22;59391;52.504;13.438;2022-12-29T11:26:21;14.50;56.70
71563;DHT22;59391;52.504;13.438;2022-12-29T11:31:55;14.50;57.00
71563;DHT22;59391;52.504;13.438;2022-12-29T11:34:32;14.50;57.30
71563;DHT22;59391;52.504;13.438;2022-12-29T11:37:30;14.50;57.60
71563;DHT22;59391;52.504;13.438;2022-12-29T11:40:18;14.40;58.60
71563;DHT22;59391;52.504;13.438;2022-12-29T11:42:51;14.40;60.00
71563;DHT22;59391;52.504;13.438;2022-12-29T11:45:21;14.40;60.10
71563;DHT22;59391;52.504;13.438;2022-12-29T11:47:55;14.30;61.20
71563;DHT22;59391;52.504;13.438;2022-12-29T11:50:26;14.20;61.00
71563;DHT22;59391;52.504;13.438;2022-12-29T11:56:49;14.10;60.70
71563;DHT22;59391;52.504;13.438;2022-12-29T12:05:14;13.80;64.80
71563;DHT22;59391;52.504;13.438;2022-12-29T12:07:49;13.80;66.40
71563;DHT22;59391;52.504;13.438;2022-12-29T12:11:06;13.60;65.80
71563;DHT22;59391;52.504;13.438;2022-12-29T12:13:25;13.30;68.40
71563;DHT22;59391;52.504;13.438;2022-12-29T12:16:11;13.00;69.80
71563;DHT22;59391;52.504;13.438;2022-12-29T12:18:47;12.60;71.30
71563;DHT22;59391;52.504;13.438;2022-12-29T12:24:23;12.10;74.90
71563;DHT22;59391;52.504;13.438;2022-12-29T12:27:21;11.90;75.70
71563;DHT22;59391;52.504;13.438;2022-12-29T12:30:15;11.70;76.20
71563;DHT22;59391;52.504;13.438;2022-12-29T12:33:06;11.70;77.10
71563;DHT22;59391;52.504;13.438;2022-12-29T12:41:41;11.50;77.90
71563;DHT22;59391;52.504;13.438;2022-12-29T12:44:56;11.50;78.60
71563;DHT22;59391;52.504;13.438;2022-12-29T12:50:55;11.40;78.90
71563;DHT22;59391;52.504;13.438;2022-12-29T13:02:44;11.60;77.20
71563;DHT22;59391;52.504;13.438;2022-12-29T13:08:58;11.60;77.80
71563;DHT22;59391;52.504;13.438;2022-12-29T13:18:00;11.70;78.30
71563;DHT22;59391;52.504;13.438;2022-12-29T13:20:52;11.80;78.60
71563;DHT22;59391;52.504;13.438;2022-12-29T13:23:34;11.90;79.90
71563;DHT22;59391;52.504;13.438;2022-12-29T13:29:18;12.30;77.50
71563;DHT22;59391;52.504;13.438;2022-12-29T13:38:40;12.40;74.30
71563;DHT22;59391;52.504;13.438;2022-12-29T13:41:13;12.40;73.80
71563;DHT22;59391;52.504;13.438;2022-12-29T13:43:45;12.40;74.30
71563;DHT22;59391;52.504;13.438;2022-12-29T13:46:24;12.40;74.30
71563;DHT22;59391;52.504;13.438;2022-12-29T13:49:01;12.40;73.90
71563;DHT22;59391;52.504;13.438;2022-12-29T13:51:30;12.40;74.20
71563;DHT22;59391;52.504;13.438;2022-12-29T13:54:22;12.40;74.30
71563;DHT22;59391;52.504;13.438;2022-12-29T13:57:26;12.40;74.20
71563;DHT22;59391;52.504;13.438;2022-12-29T14:00:15;12.40;73.90
71563;DHT22;59391;52.504;13.438;2022-12-29T14:07:46;12.50;74.40
71563;DHT22;59391;52.504;13.438;2022-12-29T14:10:35;12.50;73.70
71563;DHT22;59391;52.504;13.438;2022-12-29T14:13:18;12.50;73.50
71563;DHT22;59391;52.504;13.438;2022-12-29T14:15:57;12.50;72.80
71563;DHT22;59391;52.504;13.438;2022-12-29T14:18:25;12.50;73.20
71563;DHT22;59391;52.504;13.438;2022-12-29T14:23:43;12.50;73.40
71563;DHT22;59391;52.504;13.438;2022-12-29T14:28:56;12.50;72.60
71563;DHT22;59391;52.504;13.438;2022-12-29T14:36:36;12.60;72.70
71563;DHT22;59391;52.504;13.438;2022-12-29T14:45:01;12.50;71.60
71563;DHT22;59391;52.504;13.438;2022-12-29T14:47:51;12.60;72.40
71563;DHT22;59391;52.504;13.438;2022-12-29T14:50:35;12.60;71.10
71563;DHT22;59391;52.504;13.438;2022-12-29T14:53:05;12.60;71.60
71563;DHT22;59391;52.504;13.438;2022-12-29T14:55:43;12.60;71.20
71563;DHT22;59391;52.504;13.438;2022-12-29T14:58:26;12.60;71.80
71563;DHT22;59391;52.504;13.438;2022-12-29T15:00:54;12.60;71.00
71563;DHT22;59391;52.504;13.438;2022-12-29T15:03:25;12.60;70.80
71563;DHT22;59391;52.504;13.438;2022-12-29T15:06:04;12.60;70.00
71563;DHT22;59391;52.504;13.438;2022-12-29T15:08:42;12.60;70.80
71563;DHT22;59391;52.504;13.438;2022-12-29T15:11:41;12.60;71.10
71563;DHT22;59391;52.504;13.438;2022-12-29T15:14:37;12.60;70.80
71563;DHT22;59391;52.504;13.438;2022-12-29T15:17:30;12.60;71.00
71563;DHT22;59391;52.504;13.438;2022-12-29T15:27:21;12.60;72.60
71563;DHT22;59391;52.504;13.438;2022-12-29T15:34:20;12.40;72.60
71563;DHT22;59391;52.504;13.438;2022-12-29T15:45:36;12.00;73.30
71563;DHT22;59391;52.504;13.438;2022-12-29T15:48:19;12.00;73.80
71563;DHT22;59391;52.504;13.438;2022-12-29T15:51:19;11.90;73.30
71563;DHT22;59391;52.504;13.438;2022-12-29T15:57:25;11.90;73.20
71563;DHT22;59391;52.504;13.438;2022-12-29T16:00:34;11.90;72.90
71563;DHT22;59391;52.504;13.438;2022-12-29T16:03:05;11.90;72.80
71563;DHT22;59391;52.504;13.438;2022-12-29T16:05:40;11.90;72.00
71563;DHT22;59391;52.504;13.438;2022-12-29T16:10:55;11.90;72.20
71563;DHT22;59391;52.504;13.438;2022-12-29T16:13:33;11.90;72.10
71563;DHT22;59391;52.504;13.438;2022-12-29T16:16:18;11.90;72.20
71563;DHT22;59391;52.504;13.438;2022-12-29T16:18:50;11.90;71.30
71563;DHT22;59391;52.504;13.438;2022-12-29T16:21:21;11.90;71.90
71563;DHT22;59391;52.504;13.438;2022-12-29T16:23:53;11.90;71.50
71563;DHT22;59391;52.504;13.438;2022-12-29T16:26:23;12.00;71.50
71563;DHT22;59391;52.504;13.438;2022-12-29T16:28:56;12.00;70.40
71563;DHT22;59391;52.504;13.438;2022-12-29T16:31:54;12.00;69.70
71563;DHT22;59391;52.504;13.438;2022-12-29T16:34:44;12.00;69.50
71563;DHT22;59391;52.504;13.438;2022-12-29T16:37:46;12.00;67.00
71563;DHT22;59391;52.504;13.438;2022-12-29T16:40:28;12.10;67.80
71563;DHT22;59391;52.504;13.438;2022-12-29T16:43:03;12.10;67.20
71563;DHT22;59391;52.504;13.438;2022-12-29T16:50:41;12.20;66.20
71563;DHT22;59391;52.504;13.438;2022-12-29T16:53:25;12.20;65.90
71563;DHT22;59391;52.504;13.438;2022-12-29T16:55:57;12.20;65.60
71563;DHT22;59391;52.504;13.438;2022-12-29T16:58:28;12.20;64.10
71563;DHT22;59391;52.504;13.438;2022-12-29T17:00:57;12.20;64.00
71563;DHT22;59391;52.504;13.438;2022-12-29T17:03:34;12.20;64.50
71563;DHT22;59391;52.504;13.438;2022-12-29T17:06:04;12.30;63.70
71563;DHT22;59391;52.504;13.438;2022-12-29T17:08:39;12.20;63.80
71563;DHT22;59391;52.504;13.438;2022-12-29T17:11:18;12.30;62.70
71563;DHT22;59391;52.504;13.438;2022-12-29T17:14:23;12.20;62.50
71563;DHT22;59391;52.504;13.438;2022-12-29T17:17:14;12.20;62.60
71563;DHT22;59391;52.504;13.438;2022-12-29T17:19:43;12.30;62.30
71563;DHT22;59391;52.504;13.438;2022-12-29T17:22:21;12.30;60.80
71563;DHT22;59391;52.504;13.438;2022-12-29T17:24:53;12.30;61.00
71563;DHT22;59391;52.504;13.438;2022-12-29T17:27:34;12.30;60.40
71563;DHT22;59391;52.504;13.438;2022-12-29T17:30:12;12.30;60.60
71563;DHT22;59391;52.504;13.438;2022-12-29T17:32:58;12.30;60.20
71563;DHT22;59391;52.504;13.438;2022-12-29T17:35:27;12.40;61.40
71563;DHT22;59391;52.504;13.438;2022-12-29T17:37:53;12.40;60.40
71563;DHT22;59391;52.504;13.438;2022-12-29T17:40:25;12.40;60.70
71563;DHT22;59391;52.504;13.438;2022-12-29T17:42:55;12.40;59.80
71563;DHT22;59391;52.504;13.438;2022-12-29T17:45:27;12.50;59.50
71563;DHT22;59391;52.504;13.438;2022-12-29T17:47:59;12.50;59.70
71563;DHT22;59391;52.504;13.438;2022-12-29T17:50:27;12.50;59.40
71563;DHT22;59391;52.504;13.438;2022-12-29T17:53:05;12.50;59.10
71563;DHT22;59391;52.504;13.438;2022-12-29T17:55:33;12.50;58.50
71563;DHT22;59391;52.504;13.438;2022-12-29T17:57:59;12.60;58.60
71563;DHT22;59391;52.504;13.438;2022-12-29T18:00:36;12.60;59.00
71563;DHT22;59391;52.504;13.438;2022-12-29T18:03:04;12.70;58.20
71563;DHT22;59391;52.504;13.438;2022-12-29T18:05:37;12.70;58.10
71563;DHT22;59391;52.504;13.438;2022-12-29T18:08:03;12.70;57.90
71563;DHT22;59391;52.504;13.438;2022-12-29T18:10:38;12.70;57.40
71563;DHT22;59391;52.504;13.438;2022-12-29T18:13:08;12.70;58.50
71563;DHT22;59391;52.504;13.438;2022-12-29T18:15:45;12.70;58.20
71563;DHT22;59391;52.504;13.438;2022-12-29T18:18:16;12.70;57.90
71563;DHT22;59391;52.504;13.438;2022-12-29T18:20:45;12.70;58.20
71563;DHT22;59391;52.504;13.438;2022-12-29T18:23:19;12.80;59.00
71563;DHT22;59391;52.504;13.438;2022-12-29T18:26:03;12.70;59.00
71563;DHT22;59391;52.504;13.438;2022-12-29T18:28:50;12.80;59.20
71563;DHT22;59391;52.504;13.438;2022-12-29T18:31:22;12.80;58.80
71563;DHT22;59391;52.504;13.438;2022-12-29T18:33:53;12.70;58.30
71563;DHT22;59391;52.504;13.438;2022-12-29T18:36:24;12.70;58.30